sensor_id;sensor_type;location;lat;lon;timestamp;P1;durP1;ratioP1;P2;durP2;ratioP2
28774;SDS011;15926;51.348;6.596;2022-08-19T00:00:38;9.82;;;8.82;;
28774;SDS011;15926;51.348;6.596;2022-08-19T00:03:05;8.88;;;8.05;;
28774;SDS011;15926;51.348;6.596;2022-08-19T00:05:31;9.10;;;8.20;;
28774;SDS011;15926;51.348;6.596;2022-08-19T00:07:58;9.20;;;8.40;;
28774;SDS011;15926;51.348;6.596;2022-08-19T00:10:24;10.10;;;9.10;;
28774;SDS011;15926;51.348;6.596;2022-08-19T00:12:50;9.38;;;8.57;;
28774;SDS011;15926;51.348;6.596;2022-08-19T00:15:17;9.20;;;8.20;;
28774;SDS011;15926;51.348;6.596;2022-08-19T00:17:43;9.98;;;8.98;;
28774;SDS011;15926;51.348;6.596;2022-08-19T00:20:11;10.10;;;8.73;;
28774;SDS011;15926;51.348;6.596;2022-08-19T00:22:38;11.70;;;10.05;;
28774;SDS011;15926;51.348;6.596;2022-08-19T00:25:06;10.45;;;9.55;;
28774;SDS011;15926;51.348;6.596;2022-08-19T00:27:35;13.30;;;9.38;;
28774;SDS011;15926;51.348;6.596;2022-08-19T00:30:03;10.18;;;8.98;;
28774;SDS011;15926;51.348;6.596;2022-08-19T00:32:29;10.60;;;9.50;;
28774;SDS011;15926;51.348;6.596;2022-08-19T00:34:55;10.02;;;9.10;;
28774;SDS011;15926;51.348;6.596;2022-08-19T00:37:22;9.70;;;8.85;;
28774;SDS011;15926;51.348;6.596;2022-08-19T00:39:49;10.25;;;9.25;;
28774;SDS011;15926;51.348;6.596;2022-08-19T00:42:16;12.38;;;9.48;;
28774;SDS011;15926;51.348;6.596;2022-08-19T00:44:42;12.45;;;9.82;;
28774;SDS011;15926;51.348;6.596;2022-08-19T00:47:08;11.02;;;9.93;;
28774;SDS011;15926;51.348;6.596;2022-08-19T00:49:40;12.35;;;10.15;;
28774;SDS011;15926;51.348;6.596;2022-08-19T00:52:08;11.55;;;9.57;;
28774;SDS011;15926;51.348;6.596;2022-08-19T00:54:36;10.38;;;9.38;;
28774;SDS011;15926;51.348;6.596;2022-08-19T00:57:05;11.02;;;9.98;;
28774;SDS011;15926;51.348;6.596;2022-08-19T00:59:32;9.93;;;9.05;;
28774;SDS011;15926;51.348;6.596;2022-08-19T01:02:00;10.50;;;9.43;;
28774;SDS011;15926;51.348;6.596;2022-08-19T01:04:26;9.85;;;9.02;;
28774;SDS011;15926;51.348;6.596;2022-08-19T01:06:52;10.00;;;9.13;;
28774;SDS011;15926;51.348;6.596;2022-08-19T01:09:18;11.68;;;9.60;;
28774;SDS011;15926;51.348;6.596;2022-08-19T01:11:45;9.65;;;8.68;;
28774;SDS011;15926;51.348;6.596;2022-08-19T01:14:11;11.13;;;9.95;;
28774;SDS011;15926;51.348;6.596;2022-08-19T01:16:37;11.10;;;10.00;;
28774;SDS011;15926;51.348;6.596;2022-08-19T01:19:08;13.38;;;10.68;;
28774;SDS011;15926;51.348;6.596;2022-08-19T01:21:44;11.82;;;10.63;;
28774;SDS011;15926;51.348;6.596;2022-08-19T01:24:12;12.55;;;10.90;;
28774;SDS011;15926;51.348;6.596;2022-08-19T01:26:39;12.27;;;11.20;;
28774;SDS011;15926;51.348;6.596;2022-08-19T01:29:07;12.82;;;11.30;;
28774;SDS011;15926;51.348;6.596;2022-08-19T01:31:33;12.95;;;10.75;;
28774;SDS011;15926;51.348;6.596;2022-08-19T01:34:00;12.35;;;11.15;;
28774;SDS011;15926;51.348;6.596;2022-08-19T01:38:56;12.85;;;11.48;;
28774;SDS011;15926;51.348;6.596;2022-08-19T01:41:23;13.88;;;11.55;;
28774;SDS011;15926;51.348;6.596;2022-08-19T01:43:50;12.73;;;11.52;;
28774;SDS011;15926;51.348;6.596;2022-08-19T01:46:16;12.27;;;10.98;;
28774;SDS011;15926;51.348;6.596;2022-08-19T01:48:42;14.60;;;12.85;;
28774;SDS011;15926;51.348;6.596;2022-08-19T01:51:12;12.77;;;11.48;;
28774;SDS011;15926;51.348;6.596;2022-08-19T01:53:38;12.68;;;11.40;;
28774;SDS011;15926;51.348;6.596;2022-08-19T01:56:04;12.90;;;11.55;;
28774;SDS011;15926;51.348;6.596;2022-08-19T01:58:41;13.40;;;12.10;;
28774;SDS011;15926;51.348;6.596;2022-08-19T02:01:11;12.65;;;11.45;;
28774;SDS011;15926;51.348;6.596;2022-08-19T02:03:37;12.52;;;11.32;;
28774;SDS011;15926;51.348;6.596;2022-08-19T02:06:04;13.48;;;11.50;;
28774;SDS011;15926;51.348;6.596;2022-08-19T02:08:31;12.50;;;11.02;;
28774;SDS011;15926;51.348;6.596;2022-08-19T02:10:58;12.95;;;11.75;;
28774;SDS011;15926;51.348;6.596;2022-08-19T02:13:25;13.48;;;11.98;;
28774;SDS011;15926;51.348;6.596;2022-08-19T02:15:51;13.32;;;11.73;;
28774;SDS011;15926;51.348;6.596;2022-08-19T02:18:17;14.85;;;11.75;;
28774;SDS011;15926;51.348;6.596;2022-08-19T02:20:43;16.48;;;12.32;;
28774;SDS011;15926;51.348;6.596;2022-08-19T02:23:10;14.75;;;11.45;;
28774;SDS011;15926;51.348;6.596;2022-08-19T02:25:37;14.20;;;12.80;;
28774;SDS011;15926;51.348;6.596;2022-08-19T02:28:03;13.77;;;12.38;;
28774;SDS011;15926;51.348;6.596;2022-08-19T02:30:29;15.02;;;13.00;;
28774;SDS011;15926;51.348;6.596;2022-08-19T02:32:55;17.50;;;13.63;;
28774;SDS011;15926;51.348;6.596;2022-08-19T02:35:22;16.80;;;14.82;;
28774;SDS011;15926;51.348;6.596;2022-08-19T02:37:48;18.33;;;15.25;;
28774;SDS011;15926;51.348;6.596;2022-08-19T02:40:34;16.33;;;14.60;;
28774;SDS011;15926;51.348;6.596;2022-08-19T02:43:03;19.55;;;16.42;;
28774;SDS011;15926;51.348;6.596;2022-08-19T02:45:32;18.13;;;16.23;;
28774;SDS011;15926;51.348;6.596;2022-08-19T02:47:59;17.35;;;15.43;;
28774;SDS011;15926;51.348;6.596;2022-08-19T02:50:25;19.67;;;16.65;;
28774;SDS011;15926;51.348;6.596;2022-08-19T02:52:51;18.42;;;15.80;;
28774;SDS011;15926;51.348;6.596;2022-08-19T02:55:17;24.02;;;17.73;;
28774;SDS011;15926;51.348;6.596;2022-08-19T02:57:43;18.38;;;16.15;;
28774;SDS011;15926;51.348;6.596;2022-08-19T03:00:09;18.48;;;16.50;;
28774;SDS011;15926;51.348;6.596;2022-08-19T03:05:05;19.38;;;16.80;;
28774;SDS011;15926;51.348;6.596;2022-08-19T03:07:31;24.38;;;18.48;;
28774;SDS011;15926;51.348;6.596;2022-08-19T03:09:57;26.38;;;20.75;;
28774;SDS011;15926;51.348;6.596;2022-08-19T03:12:23;25.60;;;20.27;;
28774;SDS011;15926;51.348;6.596;2022-08-19T03:14:49;29.40;;;23.73;;
28774;SDS011;15926;51.348;6.596;2022-08-19T03:17:16;30.80;;;24.40;;
28774;SDS011;15926;51.348;6.596;2022-08-19T03:19:42;30.58;;;25.27;;
28774;SDS011;15926;51.348;6.596;2022-08-19T03:22:09;37.53;;;27.02;;
28774;SDS011;15926;51.348;6.596;2022-08-19T03:24:35;38.67;;;28.25;;
28774;SDS011;15926;51.348;6.596;2022-08-19T03:27:01;36.00;;;28.02;;
28774;SDS011;15926;51.348;6.596;2022-08-19T03:29:30;40.65;;;29.85;;
28774;SDS011;15926;51.348;6.596;2022-08-19T03:31:59;36.10;;;28.05;;
28774;SDS011;15926;51.348;6.596;2022-08-19T03:34:27;44.90;;;30.35;;
28774;SDS011;15926;51.348;6.596;2022-08-19T03:36:54;35.10;;;28.02;;
28774;SDS011;15926;51.348;6.596;2022-08-19T03:39:21;41.35;;;30.05;;
28774;SDS011;15926;51.348;6.596;2022-08-19T03:41:48;43.17;;;32.47;;
28774;SDS011;15926;51.348;6.596;2022-08-19T03:44:17;46.65;;;32.00;;
28774;SDS011;15926;51.348;6.596;2022-08-19T03:46:47;43.47;;;32.50;;
28774;SDS011;15926;51.348;6.596;2022-08-19T03:49:13;46.97;;;34.75;;
28774;SDS011;15926;51.348;6.596;2022-08-19T03:51:40;46.25;;;32.97;;
28774;SDS011;15926;51.348;6.596;2022-08-19T03:54:09;48.25;;;34.13;;
28774;SDS011;15926;51.348;6.596;2022-08-19T03:56:36;49.65;;;34.95;;
28774;SDS011;15926;51.348;6.596;2022-08-19T03:59:03;47.67;;;34.33;;
28774;SDS011;15926;51.348;6.596;2022-08-19T04:01:29;50.50;;;36.05;;
28774;SDS011;15926;51.348;6.596;2022-08-19T04:03:55;53.45;;;38.20;;
28774;SDS011;15926;51.348;6.596;2022-08-19T04:06:23;58.47;;;39.05;;
28774;SDS011;15926;51.348;6.596;2022-08-19T04:08:50;51.35;;;36.45;;
28774;SDS011;15926;51.348;6.596;2022-08-19T04:11:18;62.17;;;40.45;;
28774;SDS011;15926;51.348;6.596;2022-08-19T04:13:48;54.90;;;38.50;;
28774;SDS011;15926;51.348;6.596;2022-08-19T04:16:16;52.70;;;39.00;;
28774;SDS011;15926;51.348;6.596;2022-08-19T04:18:42;56.85;;;38.78;;
28774;SDS011;15926;51.348;6.596;2022-08-19T04:21:14;58.15;;;40.95;;
28774;SDS011;15926;51.348;6.596;2022-08-19T04:23:40;57.50;;;39.90;;
28774;SDS011;15926;51.348;6.596;2022-08-19T04:26:07;58.33;;;40.45;;
28774;SDS011;15926;51.348;6.596;2022-08-19T04:28:33;60.38;;;40.88;;
28774;SDS011;15926;51.348;6.596;2022-08-19T04:31:00;62.45;;;41.78;;
28774;SDS011;15926;51.348;6.596;2022-08-19T04:33:26;57.22;;;41.22;;
28774;SDS011;15926;51.348;6.596;2022-08-19T04:35:53;58.58;;;41.28;;
28774;SDS011;15926;51.348;6.596;2022-08-19T04:38:20;61.35;;;41.53;;
28774;SDS011;15926;51.348;6.596;2022-08-19T04:40:48;64.50;;;42.13;;
28774;SDS011;15926;51.348;6.596;2022-08-19T04:43:34;64.00;;;42.17;;
28774;SDS011;15926;51.348;6.596;2022-08-19T04:46:04;81.85;;;51.95;;
28774;SDS011;15926;51.348;6.596;2022-08-19T04:48:31;97.63;;;55.50;;
28774;SDS011;15926;51.348;6.596;2022-08-19T04:50:57;86.78;;;52.30;;
28774;SDS011;15926;51.348;6.596;2022-08-19T04:53:27;76.53;;;50.00;;
28774;SDS011;15926;51.348;6.596;2022-08-19T04:55:54;81.95;;;53.00;;
28774;SDS011;15926;51.348;6.596;2022-08-19T04:58:20;82.68;;;51.53;;
28774;SDS011;15926;51.348;6.596;2022-08-19T05:00:46;82.95;;;51.65;;
28774;SDS011;15926;51.348;6.596;2022-08-19T05:03:12;83.22;;;52.63;;
28774;SDS011;15926;51.348;6.596;2022-08-19T05:05:45;86.25;;;53.50;;
28774;SDS011;15926;51.348;6.596;2022-08-19T05:08:13;84.03;;;53.80;;
28774;SDS011;15926;51.348;6.596;2022-08-19T05:10:44;83.07;;;53.33;;
28774;SDS011;15926;51.348;6.596;2022-08-19T05:13:10;80.75;;;52.10;;
28774;SDS011;15926;51.348;6.596;2022-08-19T05:15:36;82.88;;;53.22;;
28774;SDS011;15926;51.348;6.596;2022-08-19T05:18:03;80.88;;;51.75;;
28774;SDS011;15926;51.348;6.596;2022-08-19T05:20:47;81.32;;;53.55;;
28774;SDS011;15926;51.348;6.596;2022-08-19T05:23:32;86.68;;;55.42;;
28774;SDS011;15926;51.348;6.596;2022-08-19T05:25:58;86.93;;;54.78;;
28774;SDS011;15926;51.348;6.596;2022-08-19T05:28:24;84.18;;;54.33;;
28774;SDS011;15926;51.348;6.596;2022-08-19T05:30:50;95.45;;;57.60;;
28774;SDS011;15926;51.348;6.596;2022-08-19T05:33:16;89.45;;;53.25;;
28774;SDS011;15926;51.348;6.596;2022-08-19T05:35:43;94.03;;;58.83;;
28774;SDS011;15926;51.348;6.596;2022-08-19T05:38:09;94.43;;;58.95;;
28774;SDS011;15926;51.348;6.596;2022-08-19T05:40:36;94.20;;;59.58;;
28774;SDS011;15926;51.348;6.596;2022-08-19T05:43:03;95.35;;;58.97;;
28774;SDS011;15926;51.348;6.596;2022-08-19T05:45:30;98.70;;;59.55;;
28774;SDS011;15926;51.348;6.596;2022-08-19T05:47:56;93.15;;;58.70;;
28774;SDS011;15926;51.348;6.596;2022-08-19T05:50:23;94.03;;;54.65;;
28774;SDS011;15926;51.348;6.596;2022-08-19T05:52:50;90.47;;;56.47;;
28774;SDS011;15926;51.348;6.596;2022-08-19T05:55:16;84.30;;;55.75;;
28774;SDS011;15926;51.348;6.596;2022-08-19T05:57:45;97.75;;;58.70;;
28774;SDS011;15926;51.348;6.596;2022-08-19T06:00:11;90.90;;;55.28;;
28774;SDS011;15926;51.348;6.596;2022-08-19T06:02:37;82.78;;;52.85;;
28774;SDS011;15926;51.348;6.596;2022-08-19T06:05:10;90.75;;;55.85;;
28774;SDS011;15926;51.348;6.596;2022-08-19T06:07:37;88.10;;;53.80;;
28774;SDS011;15926;51.348;6.596;2022-08-19T06:10:07;87.07;;;53.67;;
28774;SDS011;15926;51.348;6.596;2022-08-19T06:12:34;82.05;;;52.80;;
28774;SDS011;15926;51.348;6.596;2022-08-19T06:15:02;77.60;;;50.35;;
28774;SDS011;15926;51.348;6.596;2022-08-19T06:17:29;78.82;;;49.58;;
28774;SDS011;15926;51.348;6.596;2022-08-19T06:19:55;76.63;;;48.60;;
28774;SDS011;15926;51.348;6.596;2022-08-19T06:22:21;75.05;;;48.25;;
28774;SDS011;15926;51.348;6.596;2022-08-19T06:24:47;75.50;;;47.30;;
28774;SDS011;15926;51.348;6.596;2022-08-19T06:27:17;69.05;;;43.95;;
28774;SDS011;15926;51.348;6.596;2022-08-19T06:29:43;69.20;;;45.65;;
28774;SDS011;15926;51.348;6.596;2022-08-19T06:32:11;61.85;;;39.80;;
28774;SDS011;15926;51.348;6.596;2022-08-19T06:34:38;62.10;;;40.63;;
28774;SDS011;15926;51.348;6.596;2022-08-19T06:37:04;60.42;;;39.63;;
28774;SDS011;15926;51.348;6.596;2022-08-19T06:39:32;57.60;;;41.40;;
28774;SDS011;15926;51.348;6.596;2022-08-19T06:42:00;60.53;;;41.63;;
28774;SDS011;15926;51.348;6.596;2022-08-19T06:44:27;58.50;;;38.83;;
28774;SDS011;15926;51.348;6.596;2022-08-19T06:46:54;52.72;;;37.03;;
28774;SDS011;15926;51.348;6.596;2022-08-19T06:49:21;50.67;;;35.58;;
28774;SDS011;15926;51.348;6.596;2022-08-19T06:51:48;48.15;;;32.97;;
28774;SDS011;15926;51.348;6.596;2022-08-19T06:54:17;46.63;;;32.08;;
28774;SDS011;15926;51.348;6.596;2022-08-19T06:56:43;43.65;;;31.55;;
28774;SDS011;15926;51.348;6.596;2022-08-19T06:59:11;40.92;;;30.17;;
28774;SDS011;15926;51.348;6.596;2022-08-19T07:01:38;39.88;;;29.98;;
28774;SDS011;15926;51.348;6.596;2022-08-19T07:04:05;40.78;;;29.95;;
28774;SDS011;15926;51.348;6.596;2022-08-19T07:06:32;35.88;;;27.40;;
28774;SDS011;15926;51.348;6.596;2022-08-19T07:08:58;42.70;;;30.05;;
28774;SDS011;15926;51.348;6.596;2022-08-19T07:11:24;37.25;;;29.25;;
28774;SDS011;15926;51.348;6.596;2022-08-19T07:13:50;46.28;;;30.85;;
28774;SDS011;15926;51.348;6.596;2022-08-19T07:16:18;39.55;;;29.27;;
28774;SDS011;15926;51.348;6.596;2022-08-19T07:18:45;37.85;;;27.73;;
28774;SDS011;15926;51.348;6.596;2022-08-19T07:21:16;42.67;;;29.55;;
28774;SDS011;15926;51.348;6.596;2022-08-19T07:23:42;33.28;;;26.63;;
28774;SDS011;15926;51.348;6.596;2022-08-19T07:26:14;37.47;;;27.70;;
28774;SDS011;15926;51.348;6.596;2022-08-19T07:28:40;34.13;;;25.95;;
28774;SDS011;15926;51.348;6.596;2022-08-19T07:31:09;34.38;;;26.88;;
28774;SDS011;15926;51.348;6.596;2022-08-19T07:33:35;37.88;;;26.63;;
28774;SDS011;15926;51.348;6.596;2022-08-19T07:36:03;40.17;;;29.63;;
28774;SDS011;15926;51.348;6.596;2022-08-19T07:38:29;38.10;;;28.15;;
28774;SDS011;15926;51.348;6.596;2022-08-19T07:40:55;41.85;;;30.90;;
28774;SDS011;15926;51.348;6.596;2022-08-19T07:43:21;48.08;;;34.10;;
28774;SDS011;15926;51.348;6.596;2022-08-19T07:45:51;50.05;;;32.80;;
28774;SDS011;15926;51.348;6.596;2022-08-19T07:48:21;54.47;;;38.92;;
28774;SDS011;15926;51.348;6.596;2022-08-19T07:50:49;54.50;;;39.42;;
28774;SDS011;15926;51.348;6.596;2022-08-19T07:53:15;56.10;;;39.50;;
28774;SDS011;15926;51.348;6.596;2022-08-19T07:55:41;54.10;;;35.72;;
28774;SDS011;15926;51.348;6.596;2022-08-19T07:58:08;50.65;;;34.22;;
28774;SDS011;15926;51.348;6.596;2022-08-19T08:00:34;50.72;;;35.10;;
28774;SDS011;15926;51.348;6.596;2022-08-19T08:03:00;56.33;;;38.45;;
28774;SDS011;15926;51.348;6.596;2022-08-19T08:05:26;60.53;;;39.38;;
28774;SDS011;15926;51.348;6.596;2022-08-19T08:08:12;53.33;;;37.33;;
28774;SDS011;15926;51.348;6.596;2022-08-19T08:11:08;58.20;;;40.60;;
28774;SDS011;15926;51.348;6.596;2022-08-19T08:13:35;62.92;;;42.60;;
28774;SDS011;15926;51.348;6.596;2022-08-19T08:16:01;67.82;;;43.35;;
28774;SDS011;15926;51.348;6.596;2022-08-19T08:18:27;64.75;;;42.95;;
28774;SDS011;15926;51.348;6.596;2022-08-19T08:20:57;62.55;;;42.90;;
28774;SDS011;15926;51.348;6.596;2022-08-19T08:23:23;55.97;;;38.85;;
28774;SDS011;15926;51.348;6.596;2022-08-19T08:25:56;62.53;;;40.38;;
28774;SDS011;15926;51.348;6.596;2022-08-19T08:28:22;54.70;;;36.20;;
28774;SDS011;15926;51.348;6.596;2022-08-19T08:30:48;59.33;;;39.45;;
28774;SDS011;15926;51.348;6.596;2022-08-19T08:33:19;55.00;;;38.53;;
28774;SDS011;15926;51.348;6.596;2022-08-19T08:35:46;59.17;;;41.03;;
28774;SDS011;15926;51.348;6.596;2022-08-19T08:38:12;60.53;;;40.40;;
28774;SDS011;15926;51.348;6.596;2022-08-19T08:40:47;57.63;;;40.97;;
28774;SDS011;15926;51.348;6.596;2022-08-19T08:45:47;45.38;;;34.00;;
28774;SDS011;15926;51.348;6.596;2022-08-19T08:51:02;48.30;;;34.97;;
28774;SDS011;15926;51.348;6.596;2022-08-19T08:53:29;42.70;;;32.05;;
28774;SDS011;15926;51.348;6.596;2022-08-19T08:55:56;37.55;;;28.23;;
28774;SDS011;15926;51.348;6.596;2022-08-19T08:58:27;37.17;;;26.55;;
28774;SDS011;15926;51.348;6.596;2022-08-19T09:00:55;37.45;;;27.45;;
28774;SDS011;15926;51.348;6.596;2022-08-19T09:03:23;28.52;;;23.55;;
28774;SDS011;15926;51.348;6.596;2022-08-19T09:08:40;32.10;;;24.63;;
28774;SDS011;15926;51.348;6.596;2022-08-19T09:13:37;28.08;;;20.65;;
28774;SDS011;15926;51.348;6.596;2022-08-19T09:16:10;27.48;;;20.63;;
28774;SDS011;15926;51.348;6.596;2022-08-19T09:18:41;28.17;;;20.52;;
28774;SDS011;15926;51.348;6.596;2022-08-19T09:21:08;29.95;;;21.50;;
28774;SDS011;15926;51.348;6.596;2022-08-19T09:23:35;23.27;;;19.33;;
28774;SDS011;15926;51.348;6.596;2022-08-19T09:26:01;23.35;;;18.85;;
28774;SDS011;15926;51.348;6.596;2022-08-19T09:28:31;23.58;;;17.98;;
28774;SDS011;15926;51.348;6.596;2022-08-19T09:30:57;19.10;;;14.82;;
28774;SDS011;15926;51.348;6.596;2022-08-19T09:33:23;16.38;;;13.80;;
28774;SDS011;15926;51.348;6.596;2022-08-19T09:35:49;25.35;;;18.75;;
28774;SDS011;15926;51.348;6.596;2022-08-19T09:38:16;18.63;;;15.85;;
28774;SDS011;15926;51.348;6.596;2022-08-19T09:40:42;19.27;;;16.13;;
28774;SDS011;15926;51.348;6.596;2022-08-19T09:43:08;17.40;;;14.48;;
28774;SDS011;15926;51.348;6.596;2022-08-19T09:45:35;15.82;;;12.70;;
28774;SDS011;15926;51.348;6.596;2022-08-19T09:48:01;19.38;;;13.95;;
28774;SDS011;15926;51.348;6.596;2022-08-19T09:50:27;13.27;;;11.50;;
28774;SDS011;15926;51.348;6.596;2022-08-19T09:52:57;14.43;;;12.70;;
28774;SDS011;15926;51.348;6.596;2022-08-19T09:55:24;16.75;;;13.38;;
28774;SDS011;15926;51.348;6.596;2022-08-19T09:57:53;20.52;;;14.48;;
28774;SDS011;15926;51.348;6.596;2022-08-19T10:00:19;16.25;;;12.70;;
28774;SDS011;15926;51.348;6.596;2022-08-19T10:02:45;16.48;;;13.65;;
28774;SDS011;15926;51.348;6.596;2022-08-19T10:05:11;16.52;;;14.55;;
28774;SDS011;15926;51.348;6.596;2022-08-19T10:07:56;16.95;;;12.45;;
28774;SDS011;15926;51.348;6.596;2022-08-19T10:10:23;18.27;;;14.60;;
28774;SDS011;15926;51.348;6.596;2022-08-19T10:12:49;16.05;;;12.88;;
28774;SDS011;15926;51.348;6.596;2022-08-19T10:15:15;16.13;;;13.18;;
28774;SDS011;15926;51.348;6.596;2022-08-19T10:17:46;15.43;;;12.75;;
28774;SDS011;15926;51.348;6.596;2022-08-19T10:20:12;16.75;;;12.93;;
28774;SDS011;15926;51.348;6.596;2022-08-19T10:22:38;17.10;;;13.07;;
28774;SDS011;15926;51.348;6.596;2022-08-19T10:25:05;14.10;;;11.45;;
28774;SDS011;15926;51.348;6.596;2022-08-19T10:27:31;13.60;;;12.23;;
28774;SDS011;15926;51.348;6.596;2022-08-19T10:29:57;16.05;;;12.02;;
28774;SDS011;15926;51.348;6.596;2022-08-19T10:32:23;15.27;;;11.80;;
28774;SDS011;15926;51.348;6.596;2022-08-19T10:34:50;15.02;;;11.88;;
28774;SDS011;15926;51.348;6.596;2022-08-19T10:37:17;12.77;;;11.48;;
28774;SDS011;15926;51.348;6.596;2022-08-19T10:39:44;17.25;;;13.27;;
28774;SDS011;15926;51.348;6.596;2022-08-19T10:42:12;12.52;;;11.10;;
28774;SDS011;15926;51.348;6.596;2022-08-19T10:44:39;17.65;;;11.35;;
28774;SDS011;15926;51.348;6.596;2022-08-19T10:47:05;12.57;;;11.25;;
28774;SDS011;15926;51.348;6.596;2022-08-19T10:49:31;14.10;;;11.50;;
28774;SDS011;15926;51.348;6.596;2022-08-19T10:52:17;14.45;;;12.10;;
28774;SDS011;15926;51.348;6.596;2022-08-19T10:54:59;12.40;;;11.05;;
28774;SDS011;15926;51.348;6.596;2022-08-19T10:57:43;13.63;;;10.52;;
28774;SDS011;15926;51.348;6.596;2022-08-19T11:00:10;15.35;;;11.90;;
28774;SDS011;15926;51.348;6.596;2022-08-19T11:02:36;12.75;;;11.45;;
28774;SDS011;15926;51.348;6.596;2022-08-19T11:05:03;11.82;;;10.60;;
28774;SDS011;15926;51.348;6.596;2022-08-19T11:07:29;10.07;;;9.07;;
28774;SDS011;15926;51.348;6.596;2022-08-19T11:09:55;14.13;;;11.18;;
28774;SDS011;15926;51.348;6.596;2022-08-19T11:12:21;13.27;;;10.52;;
28774;SDS011;15926;51.348;6.596;2022-08-19T11:14:47;9.70;;;8.80;;
28774;SDS011;15926;51.348;6.596;2022-08-19T11:17:15;10.88;;;6.65;;
28774;SDS011;15926;51.348;6.596;2022-08-19T11:19:41;8.77;;;8.02;;
28774;SDS011;15926;51.348;6.596;2022-08-19T11:22:10;8.20;;;7.40;;
28774;SDS011;15926;51.348;6.596;2022-08-19T11:27:04;12.60;;;10.02;;
28774;SDS011;15926;51.348;6.596;2022-08-19T11:31:57;7.15;;;6.53;;
28774;SDS011;15926;51.348;6.596;2022-08-19T11:34:25;8.98;;;6.90;;
28774;SDS011;15926;51.348;6.596;2022-08-19T11:36:53;12.85;;;10.95;;
28774;SDS011;15926;51.348;6.596;2022-08-19T11:39:23;10.45;;;9.32;;
28774;SDS011;15926;51.348;6.596;2022-08-19T11:41:49;9.85;;;8.65;;
28774;SDS011;15926;51.348;6.596;2022-08-19T11:44:16;9.60;;;7.70;;
28774;SDS011;15926;51.348;6.596;2022-08-19T11:46:42;8.93;;;8.02;;
28774;SDS011;15926;51.348;6.596;2022-08-19T11:49:11;6.45;;;5.80;;
28774;SDS011;15926;51.348;6.596;2022-08-19T11:51:37;6.85;;;5.80;;
28774;SDS011;15926;51.348;6.596;2022-08-19T11:54:04;17.98;;;6.60;;
28774;SDS011;15926;51.348;6.596;2022-08-19T11:56:30;7.35;;;6.68;;
28774;SDS011;15926;51.348;6.596;2022-08-19T11:58:56;6.25;;;5.05;;
28774;SDS011;15926;51.348;6.596;2022-08-19T12:01:23;8.18;;;4.35;;
28774;SDS011;15926;51.348;6.596;2022-08-19T12:03:50;6.57;;;5.88;;
28774;SDS011;15926;51.348;6.596;2022-08-19T12:06:18;6.13;;;5.10;;
28774;SDS011;15926;51.348;6.596;2022-08-19T12:08:44;8.75;;;7.60;;
28774;SDS011;15926;51.348;6.596;2022-08-19T12:11:12;11.95;;;7.95;;
28774;SDS011;15926;51.348;6.596;2022-08-19T12:13:39;12.27;;;6.95;;
28774;SDS011;15926;51.348;6.596;2022-08-19T12:16:09;6.90;;;6.00;;
28774;SDS011;15926;51.348;6.596;2022-08-19T12:18:37;7.00;;;5.65;;
28774;SDS011;15926;51.348;6.596;2022-08-19T12:21:03;5.72;;;5.22;;
28774;SDS011;15926;51.348;6.596;2022-08-19T12:23:29;5.40;;;4.90;;
28774;SDS011;15926;51.348;6.596;2022-08-19T12:25:55;5.75;;;5.05;;
28774;SDS011;15926;51.348;6.596;2022-08-19T12:28:23;5.18;;;4.78;;
28774;SDS011;15926;51.348;6.596;2022-08-19T12:30:49;5.25;;;4.18;;
28774;SDS011;15926;51.348;6.596;2022-08-19T12:33:16;5.97;;;4.85;;
28774;SDS011;15926;51.348;6.596;2022-08-19T12:35:44;5.13;;;4.63;;
28774;SDS011;15926;51.348;6.596;2022-08-19T12:38:11;4.50;;;3.97;;
28774;SDS011;15926;51.348;6.596;2022-08-19T12:40:38;4.20;;;3.90;;
28774;SDS011;15926;51.348;6.596;2022-08-19T12:43:07;4.28;;;3.88;;
28774;SDS011;15926;51.348;6.596;2022-08-19T12:45:34;3.35;;;3.03;;
28774;SDS011;15926;51.348;6.596;2022-08-19T12:48:00;5.63;;;3.85;;
28774;SDS011;15926;51.348;6.596;2022-08-19T12:50:26;5.25;;;4.63;;
28774;SDS011;15926;51.348;6.596;2022-08-19T12:52:53;5.45;;;4.93;;
28774;SDS011;15926;51.348;6.596;2022-08-19T12:55:19;5.43;;;4.03;;
28774;SDS011;15926;51.348;6.596;2022-08-19T12:57:45;6.70;;;4.45;;
28774;SDS011;15926;51.348;6.596;2022-08-19T13:00:15;4.20;;;3.78;;
28774;SDS011;15926;51.348;6.596;2022-08-19T13:02:45;4.70;;;4.30;;
28774;SDS011;15926;51.348;6.596;2022-08-19T13:05:13;6.00;;;4.57;;
28774;SDS011;15926;51.348;6.596;2022-08-19T13:10:11;6.47;;;4.25;;
28774;SDS011;15926;51.348;6.596;2022-08-19T13:12:38;9.45;;;4.63;;
28774;SDS011;15926;51.348;6.596;2022-08-19T13:15:05;5.20;;;4.22;;
28774;SDS011;15926;51.348;6.596;2022-08-19T13:17:33;3.97;;;3.67;;
28774;SDS011;15926;51.348;6.596;2022-08-19T13:19:59;4.50;;;3.60;;
28774;SDS011;15926;51.348;6.596;2022-08-19T13:22:25;6.28;;;4.35;;
28774;SDS011;15926;51.348;6.596;2022-08-19T13:24:52;4.07;;;3.60;;
28774;SDS011;15926;51.348;6.596;2022-08-19T13:27:18;5.47;;;4.97;;
28774;SDS011;15926;51.348;6.596;2022-08-19T13:29:44;4.18;;;3.88;;
28774;SDS011;15926;51.348;6.596;2022-08-19T13:32:29;4.47;;;4.00;;
28774;SDS011;15926;51.348;6.596;2022-08-19T13:35:14;4.50;;;4.10;;
28774;SDS011;15926;51.348;6.596;2022-08-19T13:37:41;4.18;;;3.70;;
28774;SDS011;15926;51.348;6.596;2022-08-19T13:40:08;6.47;;;4.03;;
28774;SDS011;15926;51.348;6.596;2022-08-19T13:42:39;4.95;;;3.80;;
28774;SDS011;15926;51.348;6.596;2022-08-19T13:45:05;4.22;;;3.92;;
28774;SDS011;15926;51.348;6.596;2022-08-19T13:47:32;5.55;;;3.65;;
28774;SDS011;15926;51.348;6.596;2022-08-19T13:50:04;4.28;;;3.42;;
28774;SDS011;15926;51.348;6.596;2022-08-19T13:52:30;5.75;;;4.25;;
28774;SDS011;15926;51.348;6.596;2022-08-19T13:54:56;7.65;;;4.38;;
28774;SDS011;15926;51.348;6.596;2022-08-19T13:57:23;6.75;;;4.28;;
28774;SDS011;15926;51.348;6.596;2022-08-19T13:59:48;5.78;;;4.07;;
28774;SDS011;15926;51.348;6.596;2022-08-19T14:02:15;4.97;;;3.80;;
28774;SDS011;15926;51.348;6.596;2022-08-19T14:04:41;4.40;;;3.78;;
28774;SDS011;15926;51.348;6.596;2022-08-19T14:07:07;5.95;;;4.40;;
28774;SDS011;15926;51.348;6.596;2022-08-19T14:09:34;7.32;;;4.40;;
28774;SDS011;15926;51.348;6.596;2022-08-19T14:12:00;5.10;;;3.67;;
28774;SDS011;15926;51.348;6.596;2022-08-19T14:14:26;4.00;;;3.63;;
28774;SDS011;15926;51.348;6.596;2022-08-19T14:16:52;3.72;;;3.42;;
28774;SDS011;15926;51.348;6.596;2022-08-19T14:19:18;5.45;;;3.63;;
28774;SDS011;15926;51.348;6.596;2022-08-19T14:21:44;4.50;;;3.63;;
28774;SDS011;15926;51.348;6.596;2022-08-19T14:24:10;3.42;;;3.22;;
28774;SDS011;15926;51.348;6.596;2022-08-19T14:26:36;4.13;;;3.33;;
28774;SDS011;15926;51.348;6.596;2022-08-19T14:29:03;4.82;;;3.60;;
28774;SDS011;15926;51.348;6.596;2022-08-19T14:31:29;3.15;;;2.90;;
28774;SDS011;15926;51.348;6.596;2022-08-19T14:33:55;6.47;;;3.88;;
28774;SDS011;15926;51.348;6.596;2022-08-19T14:36:21;4.55;;;3.30;;
28774;SDS011;15926;51.348;6.596;2022-08-19T14:38:48;4.32;;;3.38;;
28774;SDS011;15926;51.348;6.596;2022-08-19T14:41:16;4.10;;;3.50;;
28774;SDS011;15926;51.348;6.596;2022-08-19T14:43:45;5.82;;;3.53;;
28774;SDS011;15926;51.348;6.596;2022-08-19T14:46:11;4.53;;;3.40;;
28774;SDS011;15926;51.348;6.596;2022-08-19T14:48:38;3.65;;;3.35;;
28774;SDS011;15926;51.348;6.596;2022-08-19T14:51:05;4.85;;;2.80;;
28774;SDS011;15926;51.348;6.596;2022-08-19T14:53:31;3.95;;;3.65;;